createdAt,value
2018-04-08T00:01:04.719Z,8.53
2018-04-08T00:03:31.779Z,11.67
2018-04-08T00:05:58.180Z,10.03
2018-04-08T00:08:24.448Z,7.53
2018-04-08T00:10:50.754Z,9.73
2018-04-08T00:13:17.796Z,7.87
2018-04-08T00:15:44.033Z,6.40
2018-04-08T00:18:10.356Z,6.87
2018-04-08T00:20:37.386Z,8.40
2018-04-08T00:23:04.391Z,5.70
2018-04-08T00:25:30.723Z,7.53
2018-04-08T00:27:57.050Z,9.53
2018-04-08T00:30:23.359Z,10.80
2018-04-08T00:32:49.649Z,8.13
2018-04-08T00:35:15.912Z,8.43
2018-04-08T00:37:42.200Z,6.33
2018-04-08T00:40:08.500Z,10.90
2018-04-08T00:42:34.832Z,6.67
2018-04-08T00:45:01.104Z,9.80
2018-04-08T00:47:27.391Z,9.67
2018-04-08T00:49:53.722Z,8.63
2018-04-08T00:52:20.032Z,7.90
2018-04-08T00:54:47.085Z,7.00
2018-04-08T00:57:13.367Z,12.87
2018-04-08T00:59:39.665Z,14.43
2018-04-08T01:02:05.955Z,7.63
2018-04-08T01:04:32.986Z,10.93
2018-04-08T01:06:59.284Z,8.03
2018-04-08T01:09:25.547Z,7.27
2018-04-08T01:11:52.565Z,11.20
2018-04-08T01:14:18.871Z,8.80
2018-04-08T01:16:45.184Z,8.10
2018-04-08T01:19:11.480Z,10.93
2018-04-08T01:21:37.771Z,8.30
2018-04-08T01:24:04.093Z,9.67
2018-04-08T01:26:30.358Z,8.23
2018-04-08T01:28:56.622Z,8.53
2018-04-08T01:31:23.646Z,8.00
2018-04-08T01:33:49.931Z,8.30
2018-04-08T01:36:16.217Z,9.73
2018-04-08T01:38:42.507Z,8.43
2018-04-08T01:41:08.848Z,8.20
2018-04-08T01:43:35.135Z,8.60
2018-04-08T01:46:02.151Z,12.03
2018-04-08T01:48:29.197Z,11.77
2018-04-08T01:50:55.476Z,11.03
2018-04-08T01:53:21.736Z,9.33
2018-04-08T01:55:48.801Z,11.90
2018-04-08T01:58:15.124Z,15.10
2018-04-08T02:00:41.431Z,13.57
2018-04-08T02:03:07.707Z,9.67
2018-04-08T02:05:34.734Z,9.27
2018-04-08T02:08:01.055Z,9.63
2018-04-08T02:10:27.303Z,12.83
2018-04-08T02:12:53.559Z,8.30
2018-04-08T02:15:20.572Z,9.87
2018-04-08T02:17:46.863Z,8.40
2018-04-08T02:20:13.148Z,9.13
2018-04-08T02:22:40.168Z,9.70
2018-04-08T02:25:06.448Z,8.37
2018-04-08T02:27:32.752Z,10.63
2018-04-08T02:29:59.019Z,10.27
2018-04-08T02:32:25.306Z,8.87
2018-04-08T02:34:51.581Z,9.50
2018-04-08T02:37:17.850Z,8.07
2018-04-08T02:39:44.133Z,7.10
2018-04-08T02:42:10.404Z,11.97
2018-04-08T02:44:36.681Z,9.20
2018-04-08T02:47:03.667Z,15.40
2018-04-08T02:49:29.912Z,9.67
2018-04-08T02:51:56.188Z,11.07
2018-04-08T02:54:22.456Z,8.10
2018-04-08T02:56:48.732Z,14.73
2018-04-08T02:59:14.980Z,15.60
2018-04-08T03:01:41.969Z,10.20
2018-04-08T03:04:08.260Z,11.70
2018-04-08T03:06:34.608Z,8.37
2018-04-08T03:09:00.935Z,8.60
2018-04-08T03:11:27.247Z,8.63
2018-04-08T03:13:53.519Z,10.20
2018-04-08T03:16:19.808Z,9.50
2018-04-08T03:18:46.840Z,11.03
2018-04-08T03:21:13.828Z,12.27
2018-04-08T03:23:40.148Z,8.70
2018-04-08T03:26:06.411Z,9.23
2018-04-08T03:28:32.684Z,11.83
2018-04-08T03:30:59.724Z,9.80
2018-04-08T03:33:26.727Z,6.93
2018-04-08T03:35:53.003Z,8.10
2018-04-08T03:38:20.015Z,10.07
2018-04-08T03:40:46.303Z,9.97
2018-04-08T03:43:12.595Z,9.17
2018-04-08T03:45:39.608Z,9.30
2018-04-08T03:48:05.955Z,10.30
2018-04-08T03:50:32.229Z,12.33
2018-04-08T03:52:59.215Z,8.70
2018-04-08T03:55:25.487Z,14.20
2018-04-08T03:57:52.531Z,9.17
2018-04-08T04:00:18.856Z,9.03
2018-04-08T04:02:45.135Z,8.20
2018-04-08T04:05:11.421Z,10.40
2018-04-08T04:07:37.731Z,11.13
2018-04-08T04:10:03.995Z,10.20
2018-04-08T04:12:31.047Z,9.07
2018-04-08T04:14:58.092Z,11.13
2018-04-08T04:17:24.392Z,10.30
2018-04-08T04:20:02.897Z,11.60
2018-04-08T04:22:41.555Z,12.10
2018-04-08T04:25:24.784Z,10.37
2018-04-08T04:27:51.814Z,12.03
2018-04-08T04:30:18.087Z,11.80
2018-04-08T04:32:44.395Z,13.77
2018-04-08T04:35:11.444Z,9.17
2018-04-08T04:37:38.451Z,8.30
2018-04-08T04:40:04.735Z,8.60
2018-04-08T04:42:31.014Z,11.43
2018-04-08T04:44:57.279Z,10.67
2018-04-08T04:47:24.281Z,13.23
2018-04-08T04:49:50.541Z,8.50
2018-04-08T04:52:16.791Z,11.23
2018-04-08T04:54:43.830Z,11.13
2018-04-08T04:57:10.822Z,10.73
2018-04-08T04:59:37.107Z,12.60
2018-04-08T05:02:04.107Z,10.80
2018-04-08T05:04:30.375Z,11.52
2018-04-08T05:06:56.655Z,9.53
2018-04-08T05:09:22.911Z,8.80
2018-04-08T05:11:49.203Z,11.90
2018-04-08T05:14:15.485Z,11.80
2018-04-08T05:16:41.759Z,9.47
2018-04-08T05:19:08.059Z,10.70
2018-04-08T05:21:35.055Z,11.70
2018-04-08T05:24:01.330Z,10.23
2018-04-08T05:26:28.360Z,9.73
2018-04-08T05:28:54.653Z,8.37
2018-04-08T05:31:20.928Z,8.73
2018-04-08T05:33:47.196Z,8.77
2018-04-08T05:36:13.462Z,10.83
2018-04-08T05:38:39.727Z,9.10
2018-04-08T05:41:06.739Z,7.47
2018-04-08T05:43:33.012Z,9.97
2018-04-08T05:46:00.025Z,10.20
2018-04-08T05:48:26.321Z,9.73
2018-04-08T05:50:52.575Z,9.63
2018-04-08T05:53:18.844Z,8.93
2018-04-08T05:55:45.885Z,9.60
2018-04-08T05:58:12.936Z,12.03
2018-04-08T06:00:39.991Z,7.37
2018-04-08T06:03:06.990Z,17.40
2018-04-08T06:05:34.004Z,9.33
2018-04-08T06:08:00.324Z,10.73
2018-04-08T06:10:26.591Z,12.47
2018-04-08T06:12:52.891Z,10.00
2018-04-08T06:15:19.148Z,10.13
2018-04-08T06:17:45.410Z,8.53
2018-04-08T06:20:11.683Z,10.13
2018-04-08T06:22:37.951Z,12.37
2018-04-08T06:25:04.252Z,9.53
2018-04-08T06:27:30.591Z,10.67
2018-04-08T06:29:56.863Z,9.20
2018-04-08T06:32:23.122Z,10.30
2018-04-08T06:34:50.175Z,8.57
2018-04-08T06:37:16.455Z,14.73
2018-04-08T06:39:42.812Z,11.23
2018-04-08T06:42:09.870Z,12.23
2018-04-08T06:44:36.192Z,9.70
2018-04-08T06:47:03.244Z,11.10
2018-04-08T06:49:30.277Z,10.33
2018-04-08T06:51:56.573Z,10.93
2018-04-08T06:54:22.823Z,10.73
2018-04-08T06:56:49.083Z,9.27
2018-04-08T06:59:15.331Z,10.27
2018-04-08T07:01:41.578Z,17.23
2018-04-08T07:04:08.660Z,11.00
2018-04-08T07:06:34.919Z,10.87
2018-04-08T07:09:01.963Z,11.80
2018-04-08T07:11:29.022Z,10.40
2018-04-08T07:13:55.275Z,10.93
2018-04-08T07:16:21.563Z,8.33
2018-04-08T07:18:47.811Z,10.40
2018-04-08T07:21:14.080Z,15.60
2018-04-08T07:23:40.404Z,9.03
2018-04-08T07:26:06.699Z,11.57
2018-04-08T07:28:32.986Z,9.73
2018-04-08T07:30:59.251Z,8.70
2018-04-08T07:33:26.276Z,9.07
2018-04-08T07:35:52.532Z,9.67
2018-04-08T07:38:18.828Z,11.67
2018-04-08T07:40:45.096Z,9.53
2018-04-08T07:43:12.114Z,10.87
2018-04-08T07:45:38.359Z,11.60
2018-04-08T07:48:04.652Z,11.63
2018-04-08T07:50:30.930Z,8.83
2018-04-08T07:52:57.200Z,12.80
2018-04-08T07:55:23.471Z,10.00
2018-04-08T07:57:49.759Z,9.73
2018-04-08T08:00:16.073Z,10.47
2018-04-08T08:02:42.359Z,8.73
2018-04-08T08:05:08.637Z,8.77
2018-04-08T08:07:34.928Z,11.13
2018-04-08T08:10:01.215Z,10.20
2018-04-08T08:12:27.483Z,8.80
2018-04-08T08:14:53.832Z,12.90
2018-04-08T08:17:20.857Z,10.17
2018-04-08T08:19:47.900Z,13.10
2018-04-08T08:22:14.160Z,10.20
2018-04-08T08:24:40.427Z,11.23
2018-04-08T08:27:06.709Z,11.63
2018-04-08T08:29:33.690Z,10.73
2018-04-08T08:31:59.980Z,10.30
2018-04-08T08:34:26.987Z,11.07
2018-04-08T08:36:53.261Z,11.77
2018-04-08T08:39:20.256Z,11.60
2018-04-08T08:41:46.562Z,11.80
2018-04-08T08:44:13.534Z,12.13
2018-04-08T08:46:39.799Z,15.37
2018-04-08T08:49:06.072Z,14.13
2018-04-08T08:51:32.360Z,12.80
2018-04-08T08:53:58.621Z,12.00
2018-04-08T08:56:24.908Z,12.40
2018-04-08T08:58:51.205Z,9.97
2018-04-08T09:01:17.511Z,10.50
2018-04-08T09:03:43.851Z,10.90
2018-04-08T09:06:10.123Z,13.37
2018-04-08T09:08:36.435Z,11.60
2018-04-08T09:11:02.712Z,16.50
2018-04-08T09:13:29.719Z,11.47
2018-04-08T09:15:56.009Z,11.97
2018-04-08T09:18:23.058Z,17.20
2018-04-08T09:20:55.426Z,12.33
2018-04-08T09:23:32.476Z,14.77
2018-04-08T09:26:08.811Z,12.90
2018-04-08T09:28:35.365Z,12.97
2018-04-08T09:31:02.397Z,12.00
2018-04-08T09:33:28.687Z,15.10
2018-04-08T09:35:55.055Z,10.90
2018-04-08T09:38:21.312Z,15.13
2018-04-08T09:40:47.623Z,12.87
2018-04-08T09:43:13.885Z,16.10
2018-04-08T09:45:40.252Z,14.23
2018-04-08T09:48:07.260Z,13.77
2018-04-08T09:50:33.630Z,17.10
2018-04-08T09:52:59.892Z,15.40
2018-04-08T09:55:26.180Z,13.40
2018-04-08T09:57:58.508Z,12.63
2018-04-08T10:00:31.645Z,17.50
2018-04-08T10:02:58.829Z,14.30
2018-04-08T10:05:25.163Z,13.70
2018-04-08T10:07:51.462Z,18.60
2018-04-08T10:10:17.711Z,21.80
2018-04-08T10:12:44.030Z,16.33
2018-04-08T10:15:10.364Z,12.40
2018-04-08T10:17:36.695Z,16.10
2018-04-08T10:20:03.726Z,20.07
2018-04-08T10:22:30.028Z,19.00
2018-04-08T10:24:56.343Z,16.00
2018-04-08T10:27:22.619Z,13.23
2018-04-08T10:29:48.883Z,19.13
2018-04-08T10:32:15.158Z,18.33
2018-04-08T10:34:41.420Z,15.30
2018-04-08T10:37:07.727Z,18.77
2018-04-08T10:39:34.732Z,17.37
2018-04-08T10:42:00.992Z,16.50
2018-04-08T10:44:28.036Z,22.50
2018-04-08T10:46:54.291Z,19.20
2018-04-08T10:49:20.572Z,20.17
2018-04-08T10:51:46.916Z,21.10
2018-04-08T10:54:13.127Z,22.23
2018-04-08T10:56:39.381Z,14.30
2018-04-08T10:59:05.646Z,15.27
2018-04-08T11:01:31.911Z,15.70
2018-04-08T11:03:58.190Z,17.03
2018-04-08T11:06:24.487Z,21.23
2018-04-08T11:08:50.746Z,17.57
2018-04-08T11:11:17.816Z,16.00
2018-04-08T11:13:44.132Z,16.60
2018-04-08T11:16:10.524Z,16.30
2018-04-08T11:18:36.772Z,18.27
2018-04-08T11:21:03.060Z,25.00
2018-04-08T11:23:29.315Z,23.47
2018-04-08T11:25:55.580Z,24.00
2018-04-08T11:28:22.605Z,19.70
2018-04-08T11:30:48.895Z,31.53
2018-04-08T11:33:15.156Z,18.90
2018-04-08T11:35:41.430Z,19.83
2018-04-08T11:38:07.699Z,21.03
2018-04-08T11:40:33.962Z,21.23
2018-04-08T11:43:00.947Z,19.87
2018-04-08T11:45:27.260Z,20.47
2018-04-08T11:47:53.522Z,22.20
2018-04-08T11:50:19.851Z,21.50
2018-04-08T11:52:46.132Z,20.20
2018-04-08T11:55:12.387Z,19.17
2018-04-08T11:57:38.663Z,27.67
2018-04-08T12:00:04.940Z,20.57
2018-04-08T12:02:31.266Z,22.30
2018-04-08T12:04:57.518Z,18.83
2018-04-08T12:07:23.831Z,20.53
2018-04-08T12:09:50.855Z,21.80
2018-04-08T12:12:17.149Z,19.50
2018-04-08T12:14:43.409Z,19.20
2018-04-08T12:17:10.432Z,22.23
2018-04-08T12:19:36.738Z,20.07
2018-04-08T12:22:03.056Z,20.93
2018-04-08T12:24:29.343Z,20.37
2018-04-08T12:26:55.683Z,18.17
2018-04-08T12:29:22.703Z,16.17
2018-04-08T12:31:48.961Z,21.60
2018-04-08T12:34:16.023Z,20.83
2018-04-08T12:36:43.072Z,16.70
2018-04-08T12:39:09.305Z,19.53
2018-04-08T12:41:36.375Z,17.43
2018-04-08T12:44:02.672Z,24.23
2018-04-08T12:46:28.939Z,23.90
2018-04-08T12:48:55.227Z,19.60
2018-04-08T12:51:22.223Z,16.97
2018-04-08T12:53:48.523Z,19.60
2018-04-08T12:56:15.509Z,19.20
2018-04-08T12:58:41.779Z,18.77
2018-04-08T13:01:08.794Z,20.17
2018-04-08T13:03:35.081Z,18.93
2018-04-08T13:06:01.395Z,20.63
2018-04-08T13:08:28.408Z,17.17
2018-04-08T13:10:54.673Z,22.93
2018-04-08T13:13:20.960Z,21.03
2018-04-08T13:15:47.279Z,17.10
2018-04-08T13:18:13.551Z,19.77
2018-04-08T13:20:40.582Z,17.90
2018-04-08T13:23:06.850Z,16.13
2018-04-08T13:25:33.183Z,15.60
2018-04-08T13:27:59.443Z,12.37
2018-04-08T13:30:25.720Z,11.27
2018-04-08T13:32:52.731Z,15.27
2018-04-08T13:35:19.054Z,12.00
2018-04-08T13:37:45.295Z,11.00
2018-04-08T13:40:11.589Z,7.30
2018-04-08T13:42:37.850Z,9.47
2018-04-08T13:45:04.139Z,5.80
2018-04-08T13:47:30.447Z,12.67
2018-04-08T13:49:57.480Z,13.33
2018-04-08T13:52:23.767Z,26.70
2018-04-08T13:54:50.084Z,12.63
2018-04-08T13:57:16.362Z,13.53
2018-04-08T13:59:42.678Z,11.67
2018-04-08T14:02:09.040Z,10.83
2018-04-08T14:04:35.294Z,8.10
2018-04-08T14:07:02.309Z,9.73
2018-04-08T14:09:28.559Z,7.97
2018-04-08T14:11:55.600Z,9.97
2018-04-08T14:14:22.645Z,13.43
2018-04-08T14:16:48.891Z,12.13
2018-04-08T14:19:15.147Z,11.30
2018-04-08T14:21:41.427Z,8.67
2018-04-08T14:24:07.696Z,11.60
2018-04-08T14:26:33.938Z,9.00
2018-04-08T14:29:00.226Z,12.90
2018-04-08T14:31:27.260Z,11.17
2018-04-08T14:33:54.320Z,11.90
2018-04-08T14:36:20.592Z,10.23
2018-04-08T14:38:46.870Z,10.70
2018-04-08T14:41:13.132Z,9.10
2018-04-08T14:43:39.440Z,7.47
2018-04-08T14:46:06.485Z,12.10
2018-04-08T14:48:32.815Z,7.73
2018-04-08T14:50:59.123Z,12.57
2018-04-08T14:53:25.435Z,10.83
2018-04-08T14:55:51.707Z,7.40
2018-04-08T14:58:18.750Z,7.33
2018-04-08T15:00:45.795Z,13.73
2018-04-08T15:03:12.062Z,11.60
2018-04-08T15:05:38.364Z,21.70
2018-04-08T15:08:05.417Z,15.80
2018-04-08T15:10:32.439Z,10.87
2018-04-08T15:12:58.739Z,12.57
2018-04-08T15:15:25.093Z,6.50
2018-04-08T15:17:51.387Z,6.07
2018-04-08T15:20:17.655Z,8.60
2018-04-08T15:22:43.942Z,8.57
2018-04-08T15:25:10.237Z,16.20
2018-04-08T15:27:36.471Z,8.13
2018-04-08T15:30:03.505Z,10.20
2018-04-08T15:32:29.806Z,9.47
2018-04-08T15:34:56.125Z,12.13
2018-04-08T15:37:22.392Z,12.60
2018-04-08T15:39:48.648Z,8.70
2018-04-08T15:42:15.706Z,7.60
2018-04-08T15:44:42.024Z,12.23
2018-04-08T15:47:09.044Z,13.30
2018-04-08T15:49:35.391Z,10.50
2018-04-08T15:52:01.766Z,7.60
2018-04-08T15:54:28.028Z,7.30
2018-04-08T15:56:54.351Z,9.30
2018-04-08T15:59:20.682Z,7.57
2018-04-08T16:01:47.037Z,8.10
2018-04-08T16:04:13.298Z,11.80
2018-04-08T16:06:39.591Z,10.27
2018-04-08T16:09:06.615Z,17.70
2018-04-08T16:11:32.964Z,10.00
2018-04-08T16:14:00.180Z,10.67
2018-04-08T16:16:26.444Z,8.80
2018-04-08T16:18:52.732Z,11.87
2018-04-08T16:21:19.044Z,14.93
2018-04-08T16:23:46.057Z,5.90
2018-04-08T16:26:12.332Z,9.00
2018-04-08T16:28:38.611Z,10.03
2018-04-08T16:31:04.898Z,8.50
2018-04-08T16:33:31.195Z,11.43
2018-04-08T16:35:58.217Z,7.23
2018-04-08T16:38:24.524Z,16.77
2018-04-08T16:40:50.788Z,10.50
2018-04-08T16:43:17.070Z,9.80
2018-04-08T16:45:43.325Z,7.37
2018-04-08T16:48:09.642Z,11.73
2018-04-08T16:50:35.931Z,15.23
2018-04-08T16:53:02.992Z,9.90
2018-04-08T16:55:29.331Z,8.00
2018-04-08T16:57:55.687Z,7.93
2018-04-08T17:00:21.992Z,8.80
2018-04-08T17:02:48.235Z,10.70
2018-04-08T17:05:14.516Z,12.60
2018-04-08T17:07:45.885Z,8.93
2018-04-08T17:10:13.092Z,9.43
2018-04-08T17:12:39.487Z,15.90
2018-04-08T17:15:05.809Z,10.67
2018-04-08T17:17:32.128Z,8.97
2018-04-08T17:19:59.237Z,12.20
2018-04-08T17:22:25.558Z,6.60
2018-04-08T17:24:51.923Z,6.10
2018-04-08T17:27:18.979Z,7.33
2018-04-08T17:29:45.987Z,9.80
2018-04-08T17:32:12.320Z,11.13
2018-04-08T17:34:39.367Z,8.10
2018-04-08T17:37:05.761Z,10.60
2018-04-08T17:39:32.073Z,8.63
2018-04-08T17:41:59.155Z,8.37
2018-04-08T17:44:25.469Z,9.97
2018-04-08T17:46:51.779Z,6.90
2018-04-08T17:49:18.883Z,7.40
2018-04-08T17:51:45.171Z,8.20
2018-04-08T17:54:11.475Z,10.70
2018-04-08T17:56:38.556Z,9.90
2018-04-08T17:59:04.814Z,8.57
2018-04-08T18:01:31.111Z,8.33
2018-04-08T18:03:57.396Z,12.40
2018-04-08T18:06:23.709Z,13.80
2018-04-08T18:08:50.006Z,7.03
2018-04-08T18:11:16.271Z,13.13
2018-04-08T18:13:42.564Z,10.30
2018-04-08T18:16:08.869Z,12.37
2018-04-08T18:18:35.912Z,10.03
2018-04-08T18:21:02.923Z,18.67
2018-04-08T18:23:29.286Z,20.43
2018-04-08T18:25:55.531Z,21.93
2018-04-08T18:28:22.588Z,23.43
2018-04-08T18:30:49.587Z,21.00
2018-04-08T18:33:15.887Z,25.80
2018-04-08T18:35:42.175Z,23.13
2018-04-08T18:38:09.218Z,27.43
2018-04-08T18:40:35.469Z,28.87
2018-04-08T18:43:01.771Z,88.43
2018-04-08T18:45:28.065Z,38.37
2018-04-08T18:47:54.345Z,72.57
2018-04-08T18:50:21.400Z,34.30
2018-04-08T18:52:48.465Z,36.87
2018-04-08T18:55:14.763Z,25.60
2018-04-08T18:57:41.837Z,22.47
2018-04-08T19:00:08.244Z,26.87
2018-04-08T19:02:34.584Z,15.77
2018-04-08T19:05:00.902Z,19.67
2018-04-08T19:07:28.026Z,18.33
2018-04-08T19:09:54.280Z,26.50
2018-04-08T19:12:20.595Z,29.33
2018-04-08T19:14:53.731Z,39.57
2018-04-08T19:17:26.825Z,39.20
2018-04-08T19:19:53.091Z,30.10
2018-04-08T19:22:19.383Z,30.83
2018-04-08T19:24:46.436Z,37.40
2018-04-08T19:27:18.674Z,35.07
2018-04-08T19:29:45.715Z,36.20
2018-04-08T19:32:11.976Z,34.67
2018-04-08T19:34:38.246Z,32.40
2018-04-08T19:37:04.591Z,32.90
2018-04-08T19:39:30.852Z,32.33
2018-04-08T19:41:57.917Z,27.80
2018-04-08T19:44:24.996Z,31.33
2018-04-08T19:46:51.316Z,26.17
2018-04-08T19:49:17.639Z,20.03
2018-04-08T19:51:43.920Z,16.10
2018-04-08T19:54:10.168Z,17.23
2018-04-08T19:56:37.184Z,11.37
2018-04-08T19:59:03.460Z,13.03
2018-04-08T20:01:30.475Z,29.33
2018-04-08T20:03:56.758Z,27.00
2018-04-08T20:06:23.161Z,33.23
2018-04-08T20:08:50.220Z,32.13
2018-04-08T20:11:16.516Z,36.83
2018-04-08T20:13:42.855Z,28.43
2018-04-08T20:16:09.151Z,46.17
2018-04-08T20:18:35.451Z,42.53
2018-04-08T20:21:01.723Z,28.53
2018-04-08T20:23:28.032Z,39.10
2018-04-08T20:25:54.291Z,33.73
2018-04-08T20:28:20.561Z,36.97
2018-04-08T20:30:47.642Z,34.23
2018-04-08T20:33:13.940Z,34.53
2018-04-08T20:35:41.069Z,31.87
2018-04-08T20:38:08.079Z,32.63
2018-04-08T20:40:34.434Z,25.90
2018-04-08T20:43:00.720Z,19.63
2018-04-08T20:45:27.027Z,25.20
2018-04-08T20:47:54.035Z,32.60
2018-04-08T20:50:20.304Z,35.33
2018-04-08T20:52:47.327Z,28.30
2018-04-08T20:55:13.642Z,12.10
2018-04-08T20:57:39.892Z,17.73
2018-04-08T21:00:06.199Z,35.23
2018-04-08T21:02:32.454Z,29.87
2018-04-08T21:04:59.585Z,26.93
2018-04-08T21:07:25.873Z,23.67
2018-04-08T21:09:52.148Z,17.23
2018-04-08T21:12:18.408Z,23.70
2018-04-08T21:14:45.436Z,24.57
2018-04-08T21:17:11.675Z,29.13
2018-04-08T21:19:38.671Z,23.20
2018-04-08T21:22:04.948Z,16.07
2018-04-08T21:24:31.207Z,30.27
2018-04-08T21:26:57.494Z,18.10
2018-04-08T21:29:23.746Z,20.00
2018-04-08T21:31:50.772Z,29.53
2018-04-08T21:34:17.063Z,19.70
2018-04-08T21:36:43.359Z,15.63
2018-04-08T21:39:10.394Z,14.03
2018-04-08T21:41:36.648Z,12.13
2018-04-08T21:44:02.948Z,19.23
2018-04-08T21:46:30.010Z,12.40
2018-04-08T21:48:57.007Z,11.13
2018-04-08T21:51:23.327Z,11.93
2018-04-08T21:53:49.623Z,14.10
2018-04-08T21:56:15.948Z,8.03
2018-04-08T21:58:42.239Z,8.87
2018-04-08T22:01:08.548Z,8.80
2018-04-08T22:03:35.621Z,8.57
2018-04-08T22:06:01.896Z,11.80
2018-04-08T22:08:28.975Z,10.20
2018-04-08T22:10:55.260Z,7.10
2018-04-08T22:13:21.547Z,17.53
2018-04-08T22:15:47.783Z,9.90
2018-04-08T22:18:14.052Z,7.03
2018-04-08T22:20:41.048Z,9.47
2018-04-08T22:23:07.311Z,10.13
2018-04-08T22:25:34.318Z,7.90
2018-04-08T22:28:00.570Z,9.60
2018-04-08T22:30:27.691Z,8.63
2018-04-08T22:32:53.987Z,6.80
2018-04-08T22:35:20.991Z,8.67
2018-04-08T22:37:47.237Z,7.63
2018-04-08T22:40:13.502Z,9.33
2018-04-08T22:42:39.742Z,7.40
2018-04-08T22:45:06.016Z,7.83
2018-04-08T22:47:32.271Z,4.73
2018-04-08T22:49:58.546Z,11.70
2018-04-08T22:52:24.827Z,6.60
2018-04-08T22:54:51.823Z,11.43
2018-04-08T22:57:18.084Z,9.17
2018-04-08T22:59:44.360Z,10.63
2018-04-08T23:02:10.625Z,6.80
2018-04-08T23:04:36.909Z,11.43
2018-04-08T23:07:03.183Z,9.67
2018-04-08T23:09:29.480Z,5.57
2018-04-08T23:11:55.775Z,8.00
2018-04-08T23:14:22.037Z,5.80
2018-04-08T23:16:48.303Z,5.70
2018-04-08T23:19:14.567Z,9.23
2018-04-08T23:21:41.585Z,9.60
2018-04-08T23:24:07.855Z,4.73
2018-04-08T23:26:34.129Z,6.70
2018-04-08T23:29:00.385Z,11.87
2018-04-08T23:31:26.655Z,8.73
2018-04-08T23:33:52.918Z,8.53
2018-04-08T23:36:19.199Z,6.50
2018-04-08T23:38:46.179Z,11.60
2018-04-08T23:41:12.452Z,8.10
2018-04-08T23:43:38.711Z,8.97
2018-04-08T23:46:05.744Z,6.57
2018-04-08T23:48:32.031Z,10.90
2018-04-08T23:50:58.318Z,13.03
2018-04-08T23:53:25.306Z,9.43
2018-04-08T23:55:51.575Z,8.63
2018-04-08T23:58:17.832Z,7.87
